sensor_id;sensor_type;location;lat;lon;timestamp;P1;durP1;ratioP1;P2;durP2;ratioP2
28766;SDS011;15921;52.034;20.650;2022-11-13T00:00:33;92.43;;;40.30;;
28766;SDS011;15921;52.034;20.650;2022-11-13T00:02:59;95.38;;;41.28;;
28766;SDS011;15921;52.034;20.650;2022-11-13T00:05:25;98.40;;;39.70;;
28766;SDS011;15921;52.034;20.650;2022-11-13T00:07:51;90.30;;;36.72;;
28766;SDS011;15921;52.034;20.650;2022-11-13T00:10:16;96.05;;;39.15;;
28766;SDS011;15921;52.034;20.650;2022-11-13T00:12:42;99.45;;;40.28;;
28766;SDS011;15921;52.034;20.650;2022-11-13T00:15:08;94.55;;;39.00;;
28766;SDS011;15921;52.034;20.650;2022-11-13T00:17:34;87.88;;;37.08;;
28766;SDS011;15921;52.034;20.650;2022-11-13T00:19:59;90.60;;;37.38;;
28766;SDS011;15921;52.034;20.650;2022-11-13T00:22:25;77.22;;;31.38;;
28766;SDS011;15921;52.034;20.650;2022-11-13T00:24:51;99.32;;;39.05;;
28766;SDS011;15921;52.034;20.650;2022-11-13T00:27:16;90.82;;;37.80;;
28766;SDS011;15921;52.034;20.650;2022-11-13T00:29:42;94.97;;;38.33;;
28766;SDS011;15921;52.034;20.650;2022-11-13T00:32:08;88.03;;;37.20;;
28766;SDS011;15921;52.034;20.650;2022-11-13T00:34:33;103.15;;;39.28;;
28766;SDS011;15921;52.034;20.650;2022-11-13T00:36:59;96.93;;;37.53;;
28766;SDS011;15921;52.034;20.650;2022-11-13T00:39:25;95.93;;;35.40;;
28766;SDS011;15921;52.034;20.650;2022-11-13T00:41:50;94.28;;;37.55;;
28766;SDS011;15921;52.034;20.650;2022-11-13T00:44:16;87.47;;;36.30;;
28766;SDS011;15921;52.034;20.650;2022-11-13T00:46:42;90.57;;;36.25;;
28766;SDS011;15921;52.034;20.650;2022-11-13T00:49:07;97.47;;;38.38;;
28766;SDS011;15921;52.034;20.650;2022-11-13T00:51:33;90.85;;;35.78;;
28766;SDS011;15921;52.034;20.650;2022-11-13T00:53:58;95.90;;;37.30;;
28766;SDS011;15921;52.034;20.650;2022-11-13T00:56:24;99.88;;;37.40;;
28766;SDS011;15921;52.034;20.650;2022-11-13T00:58:50;93.45;;;35.92;;
28766;SDS011;15921;52.034;20.650;2022-11-13T01:01:16;95.97;;;37.45;;
28766;SDS011;15921;52.034;20.650;2022-11-13T01:03:43;87.55;;;35.28;;
28766;SDS011;15921;52.034;20.650;2022-11-13T01:08:35;93.72;;;36.80;;
28766;SDS011;15921;52.034;20.650;2022-11-13T01:11:06;76.47;;;32.67;;
28766;SDS011;15921;52.034;20.650;2022-11-13T01:13:33;96.50;;;38.22;;
28766;SDS011;15921;52.034;20.650;2022-11-13T01:15:59;91.30;;;36.15;;
28766;SDS011;15921;52.034;20.650;2022-11-13T01:18:28;96.28;;;35.97;;
28766;SDS011;15921;52.034;20.650;2022-11-13T01:21:00;93.05;;;35.38;;
28766;SDS011;15921;52.034;20.650;2022-11-13T01:23:36;103.22;;;37.03;;
28766;SDS011;15921;52.034;20.650;2022-11-13T01:28:40;109.90;;;35.47;;
28766;SDS011;15921;52.034;20.650;2022-11-13T01:31:08;97.07;;;33.08;;
28766;SDS011;15921;52.034;20.650;2022-11-13T01:33:35;87.07;;;33.03;;
28766;SDS011;15921;52.034;20.650;2022-11-13T01:36:01;96.85;;;34.50;;
28766;SDS011;15921;52.034;20.650;2022-11-13T01:38:29;86.70;;;33.95;;
28766;SDS011;15921;52.034;20.650;2022-11-13T01:40:55;90.35;;;34.22;;
28766;SDS011;15921;52.034;20.650;2022-11-13T01:43:39;89.72;;;33.15;;
28766;SDS011;15921;52.034;20.650;2022-11-13T01:46:06;83.85;;;31.83;;
28766;SDS011;15921;52.034;20.650;2022-11-13T01:48:47;89.93;;;33.33;;
28766;SDS011;15921;52.034;20.650;2022-11-13T01:51:33;83.70;;;32.78;;
28766;SDS011;15921;52.034;20.650;2022-11-13T01:54:04;86.30;;;32.63;;
28766;SDS011;15921;52.034;20.650;2022-11-13T01:56:32;82.47;;;33.17;;
28766;SDS011;15921;52.034;20.650;2022-11-13T01:59:33;99.57;;;35.05;;
28766;SDS011;15921;52.034;20.650;2022-11-13T02:01:53;89.10;;;33.60;;
28766;SDS011;15921;52.034;20.650;2022-11-13T02:04:19;87.18;;;31.80;;
28766;SDS011;15921;52.034;20.650;2022-11-13T02:06:47;98.93;;;35.50;;
28766;SDS011;15921;52.034;20.650;2022-11-13T02:09:17;94.00;;;35.10;;
28766;SDS011;15921;52.034;20.650;2022-11-13T02:11:48;94.50;;;34.23;;
28766;SDS011;15921;52.034;20.650;2022-11-13T02:14:14;93.40;;;34.03;;
28766;SDS011;15921;52.034;20.650;2022-11-13T02:16:42;89.53;;;33.88;;
28766;SDS011;15921;52.034;20.650;2022-11-13T02:19:30;84.50;;;33.20;;
28766;SDS011;15921;52.034;20.650;2022-11-13T02:22:14;91.95;;;34.85;;
28766;SDS011;15921;52.034;20.650;2022-11-13T02:24:47;95.25;;;36.25;;
28766;SDS011;15921;52.034;20.650;2022-11-13T02:27:16;89.78;;;34.72;;
28766;SDS011;15921;52.034;20.650;2022-11-13T02:30:11;101.88;;;37.10;;
28766;SDS011;15921;52.034;20.650;2022-11-13T02:32:47;90.88;;;34.28;;
28766;SDS011;15921;52.034;20.650;2022-11-13T02:35:19;104.03;;;37.35;;
28766;SDS011;15921;52.034;20.650;2022-11-13T02:37:47;92.10;;;34.63;;
28766;SDS011;15921;52.034;20.650;2022-11-13T02:40:13;92.97;;;34.67;;
28766;SDS011;15921;52.034;20.650;2022-11-13T02:42:39;87.85;;;35.17;;
28766;SDS011;15921;52.034;20.650;2022-11-13T02:45:05;93.10;;;35.30;;
28766;SDS011;15921;52.034;20.650;2022-11-13T02:47:31;87.50;;;32.25;;
28766;SDS011;15921;52.034;20.650;2022-11-13T02:49:57;79.88;;;32.53;;
28766;SDS011;15921;52.034;20.650;2022-11-13T02:52:23;88.10;;;32.88;;
28766;SDS011;15921;52.034;20.650;2022-11-13T02:54:48;100.82;;;36.85;;
28766;SDS011;15921;52.034;20.650;2022-11-13T02:57:14;75.07;;;31.25;;
28766;SDS011;15921;52.034;20.650;2022-11-13T02:59:41;94.80;;;34.95;;
28766;SDS011;15921;52.034;20.650;2022-11-13T03:02:06;85.35;;;33.15;;
28766;SDS011;15921;52.034;20.650;2022-11-13T03:04:32;96.28;;;35.63;;
28766;SDS011;15921;52.034;20.650;2022-11-13T03:06:58;97.88;;;33.38;;
28766;SDS011;15921;52.034;20.650;2022-11-13T03:09:23;93.43;;;33.65;;
28766;SDS011;15921;52.034;20.650;2022-11-13T03:11:49;87.07;;;34.40;;
28766;SDS011;15921;52.034;20.650;2022-11-13T03:14:15;87.55;;;34.95;;
28766;SDS011;15921;52.034;20.650;2022-11-13T03:16:40;95.57;;;36.50;;
28766;SDS011;15921;52.034;20.650;2022-11-13T03:19:06;87.13;;;33.92;;
28766;SDS011;15921;52.034;20.650;2022-11-13T03:21:32;83.43;;;31.95;;
28766;SDS011;15921;52.034;20.650;2022-11-13T03:23:58;83.40;;;32.92;;
28766;SDS011;15921;52.034;20.650;2022-11-13T03:26:23;83.72;;;31.90;;
28766;SDS011;15921;52.034;20.650;2022-11-13T03:28:51;106.25;;;36.03;;
28766;SDS011;15921;52.034;20.650;2022-11-13T03:31:17;83.63;;;33.47;;
28766;SDS011;15921;52.034;20.650;2022-11-13T03:33:43;92.07;;;34.53;;
28766;SDS011;15921;52.034;20.650;2022-11-13T03:36:09;85.82;;;34.17;;
28766;SDS011;15921;52.034;20.650;2022-11-13T03:38:34;85.95;;;32.70;;
28766;SDS011;15921;52.034;20.650;2022-11-13T03:41:00;89.47;;;34.63;;
28766;SDS011;15921;52.034;20.650;2022-11-13T03:43:26;89.57;;;35.33;;
28766;SDS011;15921;52.034;20.650;2022-11-13T03:45:51;89.90;;;34.63;;
28766;SDS011;15921;52.034;20.650;2022-11-13T03:48:17;93.68;;;35.25;;
28766;SDS011;15921;52.034;20.650;2022-11-13T03:50:44;84.35;;;31.80;;
28766;SDS011;15921;52.034;20.650;2022-11-13T03:53:12;90.13;;;33.67;;
28766;SDS011;15921;52.034;20.650;2022-11-13T03:55:38;76.10;;;31.05;;
28766;SDS011;15921;52.034;20.650;2022-11-13T03:58:04;91.82;;;35.28;;
28766;SDS011;15921;52.034;20.650;2022-11-13T04:00:30;76.40;;;32.05;;
28766;SDS011;15921;52.034;20.650;2022-11-13T04:02:56;96.20;;;34.55;;
28766;SDS011;15921;52.034;20.650;2022-11-13T04:05:22;85.70;;;33.58;;
28766;SDS011;15921;52.034;20.650;2022-11-13T04:07:48;85.15;;;33.08;;
28766;SDS011;15921;52.034;20.650;2022-11-13T04:10:14;81.78;;;32.80;;
28766;SDS011;15921;52.034;20.650;2022-11-13T04:12:39;90.78;;;35.97;;
28766;SDS011;15921;52.034;20.650;2022-11-13T04:15:05;84.70;;;32.90;;
28766;SDS011;15921;52.034;20.650;2022-11-13T04:17:31;81.00;;;30.92;;
28766;SDS011;15921;52.034;20.650;2022-11-13T04:19:57;77.00;;;32.05;;
28766;SDS011;15921;52.034;20.650;2022-11-13T04:22:23;79.10;;;32.17;;
28766;SDS011;15921;52.034;20.650;2022-11-13T04:24:49;84.63;;;34.15;;
28766;SDS011;15921;52.034;20.650;2022-11-13T04:27:14;77.07;;;31.63;;
28766;SDS011;15921;52.034;20.650;2022-11-13T04:29:40;84.32;;;33.28;;
28766;SDS011;15921;52.034;20.650;2022-11-13T04:32:06;76.70;;;30.95;;
28766;SDS011;15921;52.034;20.650;2022-11-13T04:34:32;79.80;;;31.75;;
28766;SDS011;15921;52.034;20.650;2022-11-13T04:36:57;80.30;;;33.88;;
28766;SDS011;15921;52.034;20.650;2022-11-13T04:39:23;77.65;;;31.50;;
28766;SDS011;15921;52.034;20.650;2022-11-13T04:41:49;83.18;;;32.20;;
28766;SDS011;15921;52.034;20.650;2022-11-13T04:44:33;78.65;;;31.40;;
28766;SDS011;15921;52.034;20.650;2022-11-13T04:46:59;78.10;;;31.15;;
28766;SDS011;15921;52.034;20.650;2022-11-13T04:49:24;77.53;;;33.05;;
28766;SDS011;15921;52.034;20.650;2022-11-13T04:51:50;79.55;;;33.80;;
28766;SDS011;15921;52.034;20.650;2022-11-13T04:54:15;82.70;;;34.17;;
28766;SDS011;15921;52.034;20.650;2022-11-13T04:56:41;77.10;;;32.15;;
28766;SDS011;15921;52.034;20.650;2022-11-13T04:59:07;75.18;;;32.53;;
28766;SDS011;15921;52.034;20.650;2022-11-13T05:01:33;75.20;;;31.48;;
28766;SDS011;15921;52.034;20.650;2022-11-13T05:04:00;82.85;;;33.75;;
28766;SDS011;15921;52.034;20.650;2022-11-13T05:06:26;74.57;;;31.10;;
28766;SDS011;15921;52.034;20.650;2022-11-13T05:08:52;70.03;;;30.52;;
28766;SDS011;15921;52.034;20.650;2022-11-13T05:11:17;79.40;;;33.38;;
28766;SDS011;15921;52.034;20.650;2022-11-13T05:13:43;73.82;;;31.73;;
28766;SDS011;15921;52.034;20.650;2022-11-13T05:16:09;80.30;;;34.08;;
28766;SDS011;15921;52.034;20.650;2022-11-13T05:18:36;78.03;;;31.67;;
28766;SDS011;15921;52.034;20.650;2022-11-13T05:21:03;79.28;;;32.35;;
28766;SDS011;15921;52.034;20.650;2022-11-13T05:23:30;82.43;;;33.00;;
28766;SDS011;15921;52.034;20.650;2022-11-13T05:26:03;77.25;;;31.52;;
28766;SDS011;15921;52.034;20.650;2022-11-13T05:28:30;73.47;;;31.13;;
28766;SDS011;15921;52.034;20.650;2022-11-13T05:31:03;78.88;;;31.50;;
28766;SDS011;15921;52.034;20.650;2022-11-13T05:33:30;76.32;;;31.40;;
28766;SDS011;15921;52.034;20.650;2022-11-13T05:35:59;81.25;;;31.10;;
28766;SDS011;15921;52.034;20.650;2022-11-13T05:38:29;72.50;;;31.27;;
28766;SDS011;15921;52.034;20.650;2022-11-13T05:41:03;71.82;;;31.13;;
28766;SDS011;15921;52.034;20.650;2022-11-13T05:43:36;74.32;;;31.02;;
28766;SDS011;15921;52.034;20.650;2022-11-13T05:46:04;75.97;;;30.85;;
28766;SDS011;15921;52.034;20.650;2022-11-13T05:48:32;67.90;;;29.40;;
28766;SDS011;15921;52.034;20.650;2022-11-13T05:51:02;74.93;;;29.80;;
28766;SDS011;15921;52.034;20.650;2022-11-13T05:53:29;77.95;;;31.77;;
28766;SDS011;15921;52.034;20.650;2022-11-13T05:56:05;81.65;;;33.28;;
28766;SDS011;15921;52.034;20.650;2022-11-13T05:58:39;74.35;;;31.13;;
28766;SDS011;15921;52.034;20.650;2022-11-13T06:03:47;70.53;;;29.80;;
28766;SDS011;15921;52.034;20.650;2022-11-13T06:06:15;68.60;;;28.23;;
28766;SDS011;15921;52.034;20.650;2022-11-13T06:08:42;70.05;;;29.25;;
28766;SDS011;15921;52.034;20.650;2022-11-13T06:11:10;68.65;;;28.08;;
28766;SDS011;15921;52.034;20.650;2022-11-13T06:13:38;67.30;;;28.60;;
28766;SDS011;15921;52.034;20.650;2022-11-13T06:16:05;68.38;;;27.58;;
28766;SDS011;15921;52.034;20.650;2022-11-13T06:18:35;72.50;;;30.08;;
28766;SDS011;15921;52.034;20.650;2022-11-13T06:21:02;69.40;;;30.05;;
28766;SDS011;15921;52.034;20.650;2022-11-13T06:23:34;66.38;;;28.58;;
28766;SDS011;15921;52.034;20.650;2022-11-13T06:26:05;69.22;;;29.83;;
28766;SDS011;15921;52.034;20.650;2022-11-13T06:31:24;72.10;;;29.23;;
28766;SDS011;15921;52.034;20.650;2022-11-13T06:33:54;75.38;;;27.92;;
28766;SDS011;15921;52.034;20.650;2022-11-13T06:36:29;73.85;;;30.10;;
28766;SDS011;15921;52.034;20.650;2022-11-13T06:38:56;66.78;;;27.98;;
28766;SDS011;15921;52.034;20.650;2022-11-13T06:41:23;64.75;;;26.08;;
28766;SDS011;15921;52.034;20.650;2022-11-13T06:43:51;53.70;;;23.15;;
28766;SDS011;15921;52.034;20.650;2022-11-13T06:46:20;56.38;;;22.42;;
28766;SDS011;15921;52.034;20.650;2022-11-13T06:48:47;57.90;;;24.50;;
28766;SDS011;15921;52.034;20.650;2022-11-13T06:51:15;57.25;;;22.90;;
28766;SDS011;15921;52.034;20.650;2022-11-13T06:53:42;57.88;;;23.27;;
28766;SDS011;15921;52.034;20.650;2022-11-13T06:56:08;55.15;;;23.23;;
28766;SDS011;15921;52.034;20.650;2022-11-13T06:58:35;50.97;;;20.77;;
28766;SDS011;15921;52.034;20.650;2022-11-13T07:01:07;47.15;;;18.80;;
28766;SDS011;15921;52.034;20.650;2022-11-13T07:03:34;35.95;;;16.02;;
28766;SDS011;15921;52.034;20.650;2022-11-13T07:06:03;32.72;;;14.77;;
28766;SDS011;15921;52.034;20.650;2022-11-13T07:08:31;29.63;;;13.52;;
28766;SDS011;15921;52.034;20.650;2022-11-13T07:10:57;28.65;;;12.63;;
28766;SDS011;15921;52.034;20.650;2022-11-13T07:13:24;24.15;;;10.88;;
28766;SDS011;15921;52.034;20.650;2022-11-13T07:15:51;28.70;;;12.95;;
28766;SDS011;15921;52.034;20.650;2022-11-13T07:18:17;26.02;;;12.00;;
28766;SDS011;15921;52.034;20.650;2022-11-13T07:20:43;28.90;;;12.88;;
28766;SDS011;15921;52.034;20.650;2022-11-13T07:23:09;36.63;;;14.52;;
28766;SDS011;15921;52.034;20.650;2022-11-13T07:25:35;33.13;;;13.98;;
28766;SDS011;15921;52.034;20.650;2022-11-13T07:28:01;32.78;;;13.57;;
28766;SDS011;15921;52.034;20.650;2022-11-13T07:30:27;31.73;;;12.85;;
28766;SDS011;15921;52.034;20.650;2022-11-13T07:32:53;35.92;;;14.02;;
28766;SDS011;15921;52.034;20.650;2022-11-13T07:35:19;31.52;;;14.30;;
28766;SDS011;15921;52.034;20.650;2022-11-13T07:37:45;39.35;;;15.00;;
28766;SDS011;15921;52.034;20.650;2022-11-13T07:40:11;34.80;;;14.77;;
28766;SDS011;15921;52.034;20.650;2022-11-13T07:42:37;34.65;;;14.27;;
28766;SDS011;15921;52.034;20.650;2022-11-13T07:45:03;36.60;;;14.45;;
28766;SDS011;15921;52.034;20.650;2022-11-13T07:47:29;35.88;;;15.25;;
28766;SDS011;15921;52.034;20.650;2022-11-13T07:49:55;36.65;;;15.50;;
28766;SDS011;15921;52.034;20.650;2022-11-13T07:52:21;38.33;;;16.17;;
28766;SDS011;15921;52.034;20.650;2022-11-13T07:54:46;35.78;;;15.80;;
28766;SDS011;15921;52.034;20.650;2022-11-13T07:57:12;34.92;;;14.77;;
28766;SDS011;15921;52.034;20.650;2022-11-13T07:59:38;35.88;;;14.45;;
28766;SDS011;15921;52.034;20.650;2022-11-13T08:02:04;30.95;;;13.60;;
28766;SDS011;15921;52.034;20.650;2022-11-13T08:04:30;30.63;;;13.35;;
28766;SDS011;15921;52.034;20.650;2022-11-13T08:06:56;28.77;;;12.20;;
28766;SDS011;15921;52.034;20.650;2022-11-13T08:09:22;30.77;;;11.93;;
28766;SDS011;15921;52.034;20.650;2022-11-13T08:11:47;26.20;;;12.00;;
28766;SDS011;15921;52.034;20.650;2022-11-13T08:14:13;21.45;;;9.93;;
28766;SDS011;15921;52.034;20.650;2022-11-13T08:16:39;15.55;;;7.88;;
28766;SDS011;15921;52.034;20.650;2022-11-13T08:19:05;13.75;;;7.72;;
28766;SDS011;15921;52.034;20.650;2022-11-13T08:21:31;14.48;;;7.00;;
28766;SDS011;15921;52.034;20.650;2022-11-13T08:23:56;14.20;;;7.25;;
28766;SDS011;15921;52.034;20.650;2022-11-13T08:26:22;17.75;;;8.50;;
28766;SDS011;15921;52.034;20.650;2022-11-13T08:28:48;17.77;;;8.35;;
28766;SDS011;15921;52.034;20.650;2022-11-13T08:31:14;16.13;;;8.00;;
28766;SDS011;15921;52.034;20.650;2022-11-13T08:33:41;22.25;;;10.02;;
28766;SDS011;15921;52.034;20.650;2022-11-13T08:36:07;23.65;;;10.50;;
28766;SDS011;15921;52.034;20.650;2022-11-13T08:38:33;25.67;;;11.27;;
28766;SDS011;15921;52.034;20.650;2022-11-13T08:41:01;24.17;;;11.57;;
28766;SDS011;15921;52.034;20.650;2022-11-13T08:43:28;26.88;;;11.60;;
28766;SDS011;15921;52.034;20.650;2022-11-13T08:45:54;24.30;;;10.90;;
28766;SDS011;15921;52.034;20.650;2022-11-13T08:48:20;23.95;;;11.13;;
28766;SDS011;15921;52.034;20.650;2022-11-13T08:50:49;29.58;;;13.40;;
28766;SDS011;15921;52.034;20.650;2022-11-13T08:53:16;36.28;;;14.65;;
28766;SDS011;15921;52.034;20.650;2022-11-13T08:55:42;31.50;;;14.35;;
28766;SDS011;15921;52.034;20.650;2022-11-13T08:58:08;32.13;;;14.63;;
28766;SDS011;15921;52.034;20.650;2022-11-13T09:00:33;32.05;;;13.30;;
28766;SDS011;15921;52.034;20.650;2022-11-13T09:02:59;30.30;;;13.57;;
28766;SDS011;15921;52.034;20.650;2022-11-13T09:05:25;27.02;;;13.52;;
28766;SDS011;15921;52.034;20.650;2022-11-13T09:07:54;26.98;;;11.90;;
28766;SDS011;15921;52.034;20.650;2022-11-13T09:10:25;28.02;;;12.23;;
28766;SDS011;15921;52.034;20.650;2022-11-13T09:12:58;31.13;;;13.48;;
28766;SDS011;15921;52.034;20.650;2022-11-13T09:15:26;35.22;;;14.45;;
28766;SDS011;15921;52.034;20.650;2022-11-13T09:17:59;34.75;;;14.90;;
28766;SDS011;15921;52.034;20.650;2022-11-13T09:20:26;35.38;;;13.57;;
28766;SDS011;15921;52.034;20.650;2022-11-13T09:22:57;35.17;;;14.65;;
28766;SDS011;15921;52.034;20.650;2022-11-13T09:25:28;35.70;;;14.77;;
28766;SDS011;15921;52.034;20.650;2022-11-13T09:27:56;37.13;;;15.43;;
28766;SDS011;15921;52.034;20.650;2022-11-13T09:30:23;34.85;;;14.00;;
28766;SDS011;15921;52.034;20.650;2022-11-13T09:32:53;26.83;;;12.65;;
28766;SDS011;15921;52.034;20.650;2022-11-13T09:35:23;31.02;;;12.48;;
28766;SDS011;15921;52.034;20.650;2022-11-13T09:38:02;28.65;;;13.98;;
28766;SDS011;15921;52.034;20.650;2022-11-13T09:45:44;31.45;;;13.75;;
28766;SDS011;15921;52.034;20.650;2022-11-13T09:50:52;28.63;;;13.43;;
28766;SDS011;15921;52.034;20.650;2022-11-13T09:53:18;28.25;;;12.90;;
28766;SDS011;15921;52.034;20.650;2022-11-13T09:55:54;27.17;;;13.25;;
28766;SDS011;15921;52.034;20.650;2022-11-13T09:58:47;30.17;;;13.60;;
28766;SDS011;15921;52.034;20.650;2022-11-13T10:01:38;32.13;;;14.57;;
28766;SDS011;15921;52.034;20.650;2022-11-13T10:04:13;30.65;;;13.52;;
28766;SDS011;15921;52.034;20.650;2022-11-13T10:06:55;26.50;;;13.10;;
28766;SDS011;15921;52.034;20.650;2022-11-13T10:12:25;23.85;;;11.73;;
28766;SDS011;15921;52.034;20.650;2022-11-13T10:14:54;30.30;;;13.25;;
28766;SDS011;15921;52.034;20.650;2022-11-13T10:19:58;27.77;;;12.27;;
28766;SDS011;15921;52.034;20.650;2022-11-13T10:22:28;25.42;;;11.85;;
28766;SDS011;15921;52.034;20.650;2022-11-13T10:25:34;27.55;;;12.32;;
28766;SDS011;15921;52.034;20.650;2022-11-13T10:28:00;24.75;;;12.35;;
28766;SDS011;15921;52.034;20.650;2022-11-13T10:30:26;24.85;;;11.20;;
28766;SDS011;15921;52.034;20.650;2022-11-13T10:32:53;21.55;;;11.40;;
28766;SDS011;15921;52.034;20.650;2022-11-13T10:40:44;25.52;;;11.02;;
28766;SDS011;15921;52.034;20.650;2022-11-13T10:45:42;23.58;;;11.20;;
28766;SDS011;15921;52.034;20.650;2022-11-13T10:48:26;22.60;;;11.90;;
28766;SDS011;15921;52.034;20.650;2022-11-13T10:50:55;22.08;;;11.45;;
28766;SDS011;15921;52.034;20.650;2022-11-13T10:53:24;27.50;;;13.32;;
28766;SDS011;15921;52.034;20.650;2022-11-13T10:55:53;31.50;;;13.40;;
28766;SDS011;15921;52.034;20.650;2022-11-13T10:58:21;23.92;;;10.13;;
28766;SDS011;15921;52.034;20.650;2022-11-13T11:00:47;22.50;;;11.23;;
28766;SDS011;15921;52.034;20.650;2022-11-13T11:05:52;23.27;;;11.15;;
28766;SDS011;15921;52.034;20.650;2022-11-13T11:08:21;27.92;;;12.23;;
28766;SDS011;15921;52.034;20.650;2022-11-13T11:11:15;22.10;;;11.07;;
28766;SDS011;15921;52.034;20.650;2022-11-13T11:14:18;18.77;;;10.38;;
28766;SDS011;15921;52.034;20.650;2022-11-13T11:16:51;23.63;;;11.52;;
28766;SDS011;15921;52.034;20.650;2022-11-13T11:19:18;23.38;;;10.93;;
28766;SDS011;15921;52.034;20.650;2022-11-13T11:21:50;22.23;;;12.13;;
28766;SDS011;15921;52.034;20.650;2022-11-13T11:24:25;22.73;;;12.00;;
28766;SDS011;15921;52.034;20.650;2022-11-13T11:29:29;22.08;;;10.65;;
28766;SDS011;15921;52.034;20.650;2022-11-13T11:34:47;16.00;;;9.07;;
28766;SDS011;15921;52.034;20.650;2022-11-13T11:37:22;19.85;;;10.40;;
28766;SDS011;15921;52.034;20.650;2022-11-13T11:40:13;20.00;;;9.65;;
28766;SDS011;15921;52.034;20.650;2022-11-13T11:45:19;20.55;;;9.90;;
28766;SDS011;15921;52.034;20.650;2022-11-13T11:47:45;21.60;;;10.73;;
28766;SDS011;15921;52.034;20.650;2022-11-13T11:50:15;20.55;;;9.65;;
28766;SDS011;15921;52.034;20.650;2022-11-13T11:58:35;17.00;;;9.40;;
28766;SDS011;15921;52.034;20.650;2022-11-13T12:01:34;19.27;;;9.32;;
28766;SDS011;15921;52.034;20.650;2022-11-13T12:13:02;20.85;;;9.25;;
28766;SDS011;15921;52.034;20.650;2022-11-13T12:19:00;21.55;;;9.77;;
28766;SDS011;15921;52.034;20.650;2022-11-13T12:35:10;18.85;;;9.35;;
28766;SDS011;15921;52.034;20.650;2022-11-13T12:40:17;22.02;;;10.27;;
28766;SDS011;15921;52.034;20.650;2022-11-13T12:42:55;18.63;;;9.00;;
28766;SDS011;15921;52.034;20.650;2022-11-13T12:48:07;18.30;;;9.80;;
28766;SDS011;15921;52.034;20.650;2022-11-13T12:50:38;16.75;;;8.98;;
28766;SDS011;15921;52.034;20.650;2022-11-13T12:53:08;17.65;;;9.57;;
28766;SDS011;15921;52.034;20.650;2022-11-13T12:55:36;19.63;;;9.68;;
28766;SDS011;15921;52.034;20.650;2022-11-13T12:58:19;24.40;;;11.05;;
28766;SDS011;15921;52.034;20.650;2022-11-13T13:00:53;18.73;;;8.10;;
28766;SDS011;15921;52.034;20.650;2022-11-13T13:03:24;16.63;;;9.32;;
28766;SDS011;15921;52.034;20.650;2022-11-13T13:16:46;21.73;;;11.82;;
28766;SDS011;15921;52.034;20.650;2022-11-13T13:19:25;18.95;;;9.43;;
28766;SDS011;15921;52.034;20.650;2022-11-13T13:21:53;18.38;;;9.27;;
28766;SDS011;15921;52.034;20.650;2022-11-13T13:24:27;18.05;;;9.77;;
28766;SDS011;15921;52.034;20.650;2022-11-13T13:26:55;19.40;;;10.55;;
28766;SDS011;15921;52.034;20.650;2022-11-13T13:29:24;16.08;;;9.27;;
28766;SDS011;15921;52.034;20.650;2022-11-13T13:32:03;18.15;;;10.27;;
28766;SDS011;15921;52.034;20.650;2022-11-13T13:34:53;22.40;;;12.32;;
28766;SDS011;15921;52.034;20.650;2022-11-13T13:48:10;24.15;;;12.02;;
28766;SDS011;15921;52.034;20.650;2022-11-13T13:50:44;25.30;;;12.63;;
28766;SDS011;15921;52.034;20.650;2022-11-13T13:53:13;29.23;;;15.40;;
28766;SDS011;15921;52.034;20.650;2022-11-13T13:55:47;33.70;;;18.42;;
28766;SDS011;15921;52.034;20.650;2022-11-13T13:58:16;43.15;;;24.35;;
28766;SDS011;15921;52.034;20.650;2022-11-13T14:00:53;40.03;;;21.02;;
28766;SDS011;15921;52.034;20.650;2022-11-13T14:03:24;35.10;;;19.45;;
28766;SDS011;15921;52.034;20.650;2022-11-13T14:05:52;32.53;;;17.80;;
28766;SDS011;15921;52.034;20.650;2022-11-13T14:08:20;26.45;;;15.52;;
28766;SDS011;15921;52.034;20.650;2022-11-13T14:10:48;27.10;;;12.93;;
28766;SDS011;15921;52.034;20.650;2022-11-13T14:13:25;26.75;;;14.15;;
28766;SDS011;15921;52.034;20.650;2022-11-13T14:16:02;29.77;;;15.27;;
28766;SDS011;15921;52.034;20.650;2022-11-13T14:18:29;26.90;;;12.93;;
28766;SDS011;15921;52.034;20.650;2022-11-13T14:20:59;26.58;;;14.65;;
28766;SDS011;15921;52.034;20.650;2022-11-13T14:23:31;23.58;;;13.50;;
28766;SDS011;15921;52.034;20.650;2022-11-13T14:26:00;25.10;;;13.05;;
28766;SDS011;15921;52.034;20.650;2022-11-13T14:28:29;24.20;;;12.18;;
28766;SDS011;15921;52.034;20.650;2022-11-13T14:31:00;24.38;;;13.48;;
28766;SDS011;15921;52.034;20.650;2022-11-13T14:33:39;22.42;;;12.00;;
28766;SDS011;15921;52.034;20.650;2022-11-13T14:36:08;23.55;;;12.85;;
28766;SDS011;15921;52.034;20.650;2022-11-13T14:38:35;18.63;;;10.70;;
28766;SDS011;15921;52.034;20.650;2022-11-13T14:41:13;23.88;;;12.38;;
28766;SDS011;15921;52.034;20.650;2022-11-13T14:43:47;28.55;;;13.95;;
28766;SDS011;15921;52.034;20.650;2022-11-13T14:46:37;23.67;;;12.55;;
28766;SDS011;15921;52.034;20.650;2022-11-13T14:49:11;25.52;;;14.15;;
28766;SDS011;15921;52.034;20.650;2022-11-13T14:51:39;25.40;;;13.20;;
28766;SDS011;15921;52.034;20.650;2022-11-13T14:54:06;27.30;;;15.23;;
28766;SDS011;15921;52.034;20.650;2022-11-13T14:56:50;29.33;;;16.15;;
28766;SDS011;15921;52.034;20.650;2022-11-13T14:59:24;35.80;;;19.20;;
28766;SDS011;15921;52.034;20.650;2022-11-13T15:01:55;35.60;;;18.80;;
28766;SDS011;15921;52.034;20.650;2022-11-13T15:04:21;33.65;;;15.85;;
28766;SDS011;15921;52.034;20.650;2022-11-13T15:06:48;25.00;;;12.90;;
28766;SDS011;15921;52.034;20.650;2022-11-13T15:09:17;24.08;;;12.55;;
28766;SDS011;15921;52.034;20.650;2022-11-13T15:11:43;24.00;;;12.48;;
28766;SDS011;15921;52.034;20.650;2022-11-13T15:14:10;23.63;;;12.75;;
28766;SDS011;15921;52.034;20.650;2022-11-13T15:16:36;26.13;;;13.90;;
28766;SDS011;15921;52.034;20.650;2022-11-13T15:21:40;28.70;;;14.75;;
28766;SDS011;15921;52.034;20.650;2022-11-13T15:24:08;24.30;;;12.65;;
28766;SDS011;15921;52.034;20.650;2022-11-13T15:26:35;26.13;;;14.25;;
28766;SDS011;15921;52.034;20.650;2022-11-13T15:29:01;48.13;;;23.52;;
28766;SDS011;15921;52.034;20.650;2022-11-13T15:31:31;47.85;;;23.60;;
28766;SDS011;15921;52.034;20.650;2022-11-13T15:33:58;37.88;;;19.30;;
28766;SDS011;15921;52.034;20.650;2022-11-13T15:36:24;56.05;;;27.45;;
28766;SDS011;15921;52.034;20.650;2022-11-13T15:38:50;33.25;;;18.52;;
28766;SDS011;15921;52.034;20.650;2022-11-13T15:41:17;35.67;;;16.35;;
28766;SDS011;15921;52.034;20.650;2022-11-13T15:43:48;34.58;;;16.95;;
28766;SDS011;15921;52.034;20.650;2022-11-13T15:46:16;26.58;;;12.75;;
28766;SDS011;15921;52.034;20.650;2022-11-13T15:48:44;33.80;;;16.42;;
28766;SDS011;15921;52.034;20.650;2022-11-13T15:51:12;33.03;;;15.95;;
28766;SDS011;15921;52.034;20.650;2022-11-13T15:53:55;27.08;;;13.30;;
28766;SDS011;15921;52.034;20.650;2022-11-13T15:56:27;35.15;;;15.10;;
28766;SDS011;15921;52.034;20.650;2022-11-13T15:58:54;35.45;;;16.52;;
28766;SDS011;15921;52.034;20.650;2022-11-13T16:01:19;36.17;;;16.98;;
28766;SDS011;15921;52.034;20.650;2022-11-13T16:03:45;30.98;;;15.52;;